• Join FlightAware (Why Join?)
  • Login
  • US Flag 
09:53PM EDT


 

Airport Tracker/Info


-or-


 

Live Flight TrackerFlight Track Log ✈ SJJ551 ✈ 07-Jul-2012 ✈ KRIL - KAPA

Flight Track Log - Related Links

Times and Time Zones

All times are in EDT time to prevent confusion due to time zone crossing. See the SJJ551 flight status page for this flight to view local times or setup timezone preferences in your user account.

Time Position Orientation Groundspeed Altitude Reporting Facility
EDT Latitude Longitude Course Direction KTS MPH feet Rate Location/Type
02:05AM 39.5258 -107.7392 360° North 17 20 5,400  Level Denver Center
02:06AM 39.5267 -107.7392 85° East 7 8 5,400 1,620 Level Denver Center
02:07AM 39.5308 -107.6750 75° East 161 185 8,700 3,960 Climbing Denver Center
02:08AM 39.5475 -107.5914 75° East 214 246 13,500 4,020 Climbing Denver Center
02:09AM 39.5647 -107.5097 95° East 239 275 16,900 2,640 Climbing Denver Center
02:10AM 39.5569 -107.4019 93° East 324 373 18,900 1,020 Climbing Denver Center
02:11AM 39.5511 -107.2697 88° East 392 451 19,000  Climbing Denver Center
02:12AM 39.5561 -107.0986 87° East 429 494 19,000  Level Denver Center
02:13AM 39.5617 -106.9461 89° East 439 505 19,000  Level Denver Center
02:14AM 39.5628 -106.7925 90° East 445 512 19,000  Level Denver Center
02:15AM 39.5625 -106.6156 90° East 441 507 19,000  Level Denver Center
02:16AM 39.5631 -106.4717 87° East 438 504 19,000  Level Denver Center
02:17AM 39.5697 -106.3144 89° East 436 502 19,000  Level Denver Center
02:18AM 39.5714 -106.1481 91° East 441 507 19,000  Level Denver Center
02:19AM 39.5700 -105.9869 90° East 443 510 19,000  Level Denver Center
02:20AM 39.5697 -105.8253 89° East 445 512 19,000 -240 Level Denver Center
02:21AM 39.5717 -105.6608 90° East 448 516 18,600 -600 Descending Denver Center
02:22AM 39.5719 -105.5014 108° East 445 512 17,800 -1,200 Descending Denver Center
02:23AM 39.5317 -105.3425 108° East 432 497 16,300 -1,440 Descending Denver Center
02:24AM 39.4969 -105.2069 121° Southeast 398 458 14,900 -1,680 Descending Denver Center
02:25AM 39.4489 -105.1022 134° Southeast 337 388 12,900 -1,980 Descending Denver Center
02:26AM 39.3881 -105.0206 93° East 317 365 11,000 -1,320 Descending Denver Center
02:27AM 39.3833 -104.9144 71° East 296 341 10,300 -1,320 Descending Denver Center
02:28AM 39.4000 -104.8500 360° North 284 327 8,800 -1,620 Descending Denver TRACON
02:29AM 39.4667 -104.8500 360° North 242 278 7,600 -1,140 Descending Denver TRACON
02:30AM 39.5167 -104.8500 14° North 171 197 6,600 -1,020 Descending Denver TRACON
02:39AM 39.5667 -104.8333 286° West  Level FlightAware Approximate
02:40AM 39.5943 -104.9620 286° West  Level Estimated